sensor_id;sensor_type;location;lat;lon;timestamp;P1;durP1;ratioP1;P2;durP2;ratioP2
30862;SDS011;17573;55.922;37.540;2023-07-09T00:00:54;38.83;;;17.60;;
30862;SDS011;17573;55.922;37.540;2023-07-09T00:03:21;31.10;;;17.67;;
30862;SDS011;17573;55.922;37.540;2023-07-09T00:05:48;23.05;;;15.25;;
30862;SDS011;17573;55.922;37.540;2023-07-09T00:10:54;30.75;;;16.27;;
30862;SDS011;17573;55.922;37.540;2023-07-09T00:13:20;22.73;;;15.98;;
30862;SDS011;17573;55.922;37.540;2023-07-09T00:15:46;35.05;;;16.55;;
30862;SDS011;17573;55.922;37.540;2023-07-09T00:18:13;32.28;;;16.52;;
30862;SDS011;17573;55.922;37.540;2023-07-09T00:20:38;29.65;;;16.17;;
30862;SDS011;17573;55.922;37.540;2023-07-09T00:23:06;29.65;;;16.35;;
30862;SDS011;17573;55.922;37.540;2023-07-09T00:25:32;29.90;;;16.05;;
30862;SDS011;17573;55.922;37.540;2023-07-09T00:28:01;27.77;;;16.23;;
30862;SDS011;17573;55.922;37.540;2023-07-09T00:30:27;35.35;;;17.60;;
30862;SDS011;17573;55.922;37.540;2023-07-09T00:32:53;46.65;;;18.33;;
30862;SDS011;17573;55.922;37.540;2023-07-09T00:35:19;35.72;;;17.52;;
30862;SDS011;17573;55.922;37.540;2023-07-09T00:37:46;36.00;;;18.08;;
30862;SDS011;17573;55.922;37.540;2023-07-09T00:40:20;28.13;;;16.65;;
30862;SDS011;17573;55.922;37.540;2023-07-09T00:42:48;35.33;;;16.48;;
30862;SDS011;17573;55.922;37.540;2023-07-09T00:45:19;38.80;;;16.73;;
30862;SDS011;17573;55.922;37.540;2023-07-09T00:47:51;34.15;;;17.83;;
30862;SDS011;17573;55.922;37.540;2023-07-09T00:53:04;28.08;;;16.73;;
30862;SDS011;17573;55.922;37.540;2023-07-09T00:58:04;25.13;;;16.65;;
30862;SDS011;17573;55.922;37.540;2023-07-09T01:00:36;29.30;;;17.95;;
30862;SDS011;17573;55.922;37.540;2023-07-09T01:03:13;28.33;;;16.38;;
30862;SDS011;17573;55.922;37.540;2023-07-09T01:05:54;44.08;;;18.13;;
30862;SDS011;17573;55.922;37.540;2023-07-09T01:08:23;21.67;;;14.38;;
30862;SDS011;17573;55.922;37.540;2023-07-09T01:10:49;27.73;;;15.63;;
30862;SDS011;17573;55.922;37.540;2023-07-09T01:13:16;27.50;;;15.77;;
30862;SDS011;17573;55.922;37.540;2023-07-09T01:15:45;24.77;;;16.05;;
30862;SDS011;17573;55.922;37.540;2023-07-09T01:18:12;27.75;;;15.18;;
30862;SDS011;17573;55.922;37.540;2023-07-09T01:20:40;34.45;;;16.33;;
30862;SDS011;17573;55.922;37.540;2023-07-09T01:23:06;28.50;;;16.95;;
30862;SDS011;17573;55.922;37.540;2023-07-09T01:25:33;26.33;;;16.13;;
30862;SDS011;17573;55.922;37.540;2023-07-09T01:27:59;33.35;;;16.27;;
30862;SDS011;17573;55.922;37.540;2023-07-09T01:30:30;26.58;;;16.13;;
30862;SDS011;17573;55.922;37.540;2023-07-09T01:33:00;27.95;;;16.35;;
30862;SDS011;17573;55.922;37.540;2023-07-09T01:35:27;27.27;;;17.15;;
30862;SDS011;17573;55.922;37.540;2023-07-09T01:37:54;31.73;;;15.68;;
30862;SDS011;17573;55.922;37.540;2023-07-09T01:40:21;35.55;;;15.88;;
30862;SDS011;17573;55.922;37.540;2023-07-09T01:42:48;27.08;;;16.85;;
30862;SDS011;17573;55.922;37.540;2023-07-09T01:45:14;27.55;;;15.98;;
30862;SDS011;17573;55.922;37.540;2023-07-09T01:47:41;42.97;;;16.13;;
30862;SDS011;17573;55.922;37.540;2023-07-09T01:50:08;33.70;;;16.33;;
30862;SDS011;17573;55.922;37.540;2023-07-09T01:52:35;34.40;;;16.65;;
30862;SDS011;17573;55.922;37.540;2023-07-09T01:55:01;26.38;;;15.48;;
30862;SDS011;17573;55.922;37.540;2023-07-09T01:57:30;30.17;;;15.90;;
30862;SDS011;17573;55.922;37.540;2023-07-09T02:00:06;34.13;;;16.88;;
30862;SDS011;17573;55.922;37.540;2023-07-09T02:02:47;33.33;;;17.30;;
30862;SDS011;17573;55.922;37.540;2023-07-09T02:05:13;33.88;;;16.40;;
30862;SDS011;17573;55.922;37.540;2023-07-09T02:07:41;25.10;;;16.50;;
30862;SDS011;17573;55.922;37.540;2023-07-09T02:10:07;36.58;;;17.45;;
30862;SDS011;17573;55.922;37.540;2023-07-09T02:12:33;35.45;;;15.38;;
30862;SDS011;17573;55.922;37.540;2023-07-09T02:14:59;28.63;;;16.88;;
30862;SDS011;17573;55.922;37.540;2023-07-09T02:17:25;39.13;;;17.58;;
30862;SDS011;17573;55.922;37.540;2023-07-09T02:19:50;32.90;;;17.08;;
30862;SDS011;17573;55.922;37.540;2023-07-09T02:22:16;30.70;;;16.05;;
30862;SDS011;17573;55.922;37.540;2023-07-09T02:24:42;28.52;;;15.98;;
30862;SDS011;17573;55.922;37.540;2023-07-09T02:27:08;27.08;;;16.42;;
30862;SDS011;17573;55.922;37.540;2023-07-09T02:29:36;26.73;;;16.08;;
30862;SDS011;17573;55.922;37.540;2023-07-09T02:32:02;31.85;;;16.70;;
30862;SDS011;17573;55.922;37.540;2023-07-09T02:34:29;25.55;;;15.45;;
30862;SDS011;17573;55.922;37.540;2023-07-09T02:36:56;25.27;;;15.70;;
30862;SDS011;17573;55.922;37.540;2023-07-09T02:39:23;23.08;;;15.80;;
30862;SDS011;17573;55.922;37.540;2023-07-09T02:41:50;20.50;;;13.63;;
30862;SDS011;17573;55.922;37.540;2023-07-09T02:44:16;30.75;;;14.27;;
30862;SDS011;17573;55.922;37.540;2023-07-09T02:46:42;33.60;;;15.68;;
30862;SDS011;17573;55.922;37.540;2023-07-09T02:49:08;25.27;;;14.52;;
30862;SDS011;17573;55.922;37.540;2023-07-09T02:51:35;28.42;;;16.13;;
30862;SDS011;17573;55.922;37.540;2023-07-09T02:54:01;28.95;;;15.10;;
30862;SDS011;17573;55.922;37.540;2023-07-09T02:56:28;33.90;;;15.13;;
30862;SDS011;17573;55.922;37.540;2023-07-09T02:58:54;24.40;;;14.75;;
30862;SDS011;17573;55.922;37.540;2023-07-09T03:01:20;20.23;;;13.15;;
30862;SDS011;17573;55.922;37.540;2023-07-09T03:03:51;24.95;;;12.10;;
30862;SDS011;17573;55.922;37.540;2023-07-09T03:06:19;26.98;;;13.95;;
30862;SDS011;17573;55.922;37.540;2023-07-09T03:08:48;19.85;;;13.15;;
30862;SDS011;17573;55.922;37.540;2023-07-09T03:11:14;25.48;;;14.30;;
30862;SDS011;17573;55.922;37.540;2023-07-09T03:13:41;26.55;;;14.85;;
30862;SDS011;17573;55.922;37.540;2023-07-09T03:16:07;25.38;;;13.10;;
30862;SDS011;17573;55.922;37.540;2023-07-09T03:18:33;27.88;;;13.48;;
30862;SDS011;17573;55.922;37.540;2023-07-09T03:20:58;22.77;;;13.73;;
30862;SDS011;17573;55.922;37.540;2023-07-09T03:23:24;21.90;;;11.80;;
30862;SDS011;17573;55.922;37.540;2023-07-09T03:25:50;18.75;;;10.13;;
30862;SDS011;17573;55.922;37.540;2023-07-09T03:28:17;19.20;;;11.15;;
30862;SDS011;17573;55.922;37.540;2023-07-09T03:30:46;20.02;;;11.25;;
30862;SDS011;17573;55.922;37.540;2023-07-09T03:33:13;24.20;;;10.80;;
30862;SDS011;17573;55.922;37.540;2023-07-09T03:35:40;28.95;;;11.60;;
30862;SDS011;17573;55.922;37.540;2023-07-09T03:38:06;27.30;;;11.18;;
30862;SDS011;17573;55.922;37.540;2023-07-09T03:40:32;16.40;;;9.63;;
30862;SDS011;17573;55.922;37.540;2023-07-09T03:42:58;19.50;;;9.93;;
30862;SDS011;17573;55.922;37.540;2023-07-09T03:45:24;21.25;;;10.38;;
30862;SDS011;17573;55.922;37.540;2023-07-09T03:47:50;25.23;;;10.50;;
30862;SDS011;17573;55.922;37.540;2023-07-09T03:50:15;20.02;;;9.88;;
30862;SDS011;17573;55.922;37.540;2023-07-09T03:52:41;27.98;;;10.15;;
30862;SDS011;17573;55.922;37.540;2023-07-09T03:55:07;17.35;;;9.55;;
30862;SDS011;17573;55.922;37.540;2023-07-09T03:57:33;15.35;;;9.98;;
30862;SDS011;17573;55.922;37.540;2023-07-09T03:59:59;15.82;;;10.00;;
30862;SDS011;17573;55.922;37.540;2023-07-09T04:02:26;20.77;;;10.18;;
30862;SDS011;17573;55.922;37.540;2023-07-09T04:04:51;18.45;;;9.70;;
30862;SDS011;17573;55.922;37.540;2023-07-09T04:07:17;19.15;;;9.13;;
30862;SDS011;17573;55.922;37.540;2023-07-09T04:09:43;19.95;;;9.13;;
30862;SDS011;17573;55.922;37.540;2023-07-09T04:12:08;58.95;;;11.27;;
30862;SDS011;17573;55.922;37.540;2023-07-09T04:14:35;22.17;;;8.82;;
30862;SDS011;17573;55.922;37.540;2023-07-09T04:17:01;18.83;;;9.25;;
30862;SDS011;17573;55.922;37.540;2023-07-09T04:19:26;15.20;;;8.50;;
30862;SDS011;17573;55.922;37.540;2023-07-09T04:21:52;12.85;;;8.68;;
30862;SDS011;17573;55.922;37.540;2023-07-09T04:24:19;23.83;;;8.20;;
30862;SDS011;17573;55.922;37.540;2023-07-09T04:26:46;25.15;;;8.02;;
30862;SDS011;17573;55.922;37.540;2023-07-09T04:29:12;17.67;;;8.18;;
30862;SDS011;17573;55.922;37.540;2023-07-09T04:31:38;10.25;;;6.82;;
30862;SDS011;17573;55.922;37.540;2023-07-09T04:34:05;17.23;;;6.82;;
30862;SDS011;17573;55.922;37.540;2023-07-09T04:36:30;14.43;;;7.30;;
30862;SDS011;17573;55.922;37.540;2023-07-09T04:38:56;13.18;;;6.65;;
30862;SDS011;17573;55.922;37.540;2023-07-09T04:41:22;12.27;;;6.43;;
30862;SDS011;17573;55.922;37.540;2023-07-09T04:43:48;17.23;;;7.82;;
30862;SDS011;17573;55.922;37.540;2023-07-09T04:46:14;8.70;;;6.80;;
30862;SDS011;17573;55.922;37.540;2023-07-09T04:48:40;27.25;;;7.80;;
30862;SDS011;17573;55.922;37.540;2023-07-09T04:51:06;12.05;;;6.90;;
30862;SDS011;17573;55.922;37.540;2023-07-09T04:53:31;20.65;;;8.23;;
30862;SDS011;17573;55.922;37.540;2023-07-09T04:55:57;13.98;;;7.07;;
30862;SDS011;17573;55.922;37.540;2023-07-09T04:58:23;10.82;;;6.10;;
30862;SDS011;17573;55.922;37.540;2023-07-09T05:00:49;13.30;;;6.32;;
30862;SDS011;17573;55.922;37.540;2023-07-09T05:03:18;22.60;;;6.32;;
30862;SDS011;17573;55.922;37.540;2023-07-09T05:05:45;10.45;;;6.70;;
30862;SDS011;17573;55.922;37.540;2023-07-09T05:08:11;19.33;;;5.78;;
30862;SDS011;17573;55.922;37.540;2023-07-09T05:10:44;13.05;;;5.72;;
30862;SDS011;17573;55.922;37.540;2023-07-09T05:13:11;9.15;;;5.80;;
30862;SDS011;17573;55.922;37.540;2023-07-09T05:15:39;6.38;;;5.13;;
30862;SDS011;17573;55.922;37.540;2023-07-09T05:18:06;9.85;;;5.30;;
30862;SDS011;17573;55.922;37.540;2023-07-09T05:20:33;15.13;;;5.25;;
30862;SDS011;17573;55.922;37.540;2023-07-09T05:22:59;7.45;;;5.15;;
30862;SDS011;17573;55.922;37.540;2023-07-09T05:25:25;9.02;;;5.18;;
30862;SDS011;17573;55.922;37.540;2023-07-09T05:27:51;10.15;;;5.07;;
30862;SDS011;17573;55.922;37.540;2023-07-09T05:30:17;8.75;;;4.88;;
30862;SDS011;17573;55.922;37.540;2023-07-09T05:32:43;13.75;;;5.03;;
30862;SDS011;17573;55.922;37.540;2023-07-09T05:35:09;16.73;;;5.10;;
30862;SDS011;17573;55.922;37.540;2023-07-09T05:37:35;13.77;;;4.80;;
30862;SDS011;17573;55.922;37.540;2023-07-09T05:40:02;9.60;;;4.85;;
30862;SDS011;17573;55.922;37.540;2023-07-09T05:42:30;7.20;;;4.47;;
30862;SDS011;17573;55.922;37.540;2023-07-09T05:44:56;15.23;;;5.18;;
30862;SDS011;17573;55.922;37.540;2023-07-09T05:47:23;15.90;;;4.90;;
30862;SDS011;17573;55.922;37.540;2023-07-09T05:49:49;6.40;;;4.25;;
30862;SDS011;17573;55.922;37.540;2023-07-09T05:52:21;5.93;;;3.67;;
30862;SDS011;17573;55.922;37.540;2023-07-09T05:54:49;9.02;;;5.10;;
30862;SDS011;17573;55.922;37.540;2023-07-09T05:57:15;8.40;;;3.80;;
30862;SDS011;17573;55.922;37.540;2023-07-09T05:59:41;9.43;;;4.25;;
30862;SDS011;17573;55.922;37.540;2023-07-09T06:02:14;10.30;;;4.43;;
30862;SDS011;17573;55.922;37.540;2023-07-09T06:04:41;10.18;;;4.95;;
30862;SDS011;17573;55.922;37.540;2023-07-09T06:07:07;7.80;;;3.90;;
30862;SDS011;17573;55.922;37.540;2023-07-09T06:09:34;19.05;;;4.80;;
30862;SDS011;17573;55.922;37.540;2023-07-09T06:12:01;12.32;;;4.45;;
30862;SDS011;17573;55.922;37.540;2023-07-09T06:14:27;12.45;;;3.67;;
30862;SDS011;17573;55.922;37.540;2023-07-09T06:16:53;5.63;;;3.60;;
30862;SDS011;17573;55.922;37.540;2023-07-09T06:19:19;4.50;;;3.08;;
30862;SDS011;17573;55.922;37.540;2023-07-09T06:21:45;7.53;;;3.30;;
30862;SDS011;17573;55.922;37.540;2023-07-09T06:24:11;7.90;;;3.55;;
30862;SDS011;17573;55.922;37.540;2023-07-09T06:26:36;2.95;;;2.30;;
30862;SDS011;17573;55.922;37.540;2023-07-09T06:29:02;6.93;;;2.75;;
30862;SDS011;17573;55.922;37.540;2023-07-09T06:31:29;6.65;;;2.97;;
30862;SDS011;17573;55.922;37.540;2023-07-09T06:33:55;3.33;;;2.17;;
30862;SDS011;17573;55.922;37.540;2023-07-09T06:36:20;5.00;;;2.65;;
30862;SDS011;17573;55.922;37.540;2023-07-09T06:38:46;3.63;;;2.78;;
30862;SDS011;17573;55.922;37.540;2023-07-09T06:41:15;4.85;;;2.92;;
30862;SDS011;17573;55.922;37.540;2023-07-09T06:43:41;9.13;;;2.83;;
30862;SDS011;17573;55.922;37.540;2023-07-09T06:46:08;6.25;;;2.90;;
30862;SDS011;17573;55.922;37.540;2023-07-09T06:48:36;12.88;;;3.55;;
30862;SDS011;17573;55.922;37.540;2023-07-09T06:51:02;9.63;;;3.10;;
30862;SDS011;17573;55.922;37.540;2023-07-09T06:53:28;3.97;;;2.92;;
30862;SDS011;17573;55.922;37.540;2023-07-09T06:55:55;6.95;;;3.35;;
30862;SDS011;17573;55.922;37.540;2023-07-09T06:58:24;6.55;;;3.65;;
30862;SDS011;17573;55.922;37.540;2023-07-09T07:00:53;4.07;;;2.63;;
30862;SDS011;17573;55.922;37.540;2023-07-09T07:03:20;8.60;;;3.63;;
30862;SDS011;17573;55.922;37.540;2023-07-09T07:05:47;5.75;;;2.85;;
30862;SDS011;17573;55.922;37.540;2023-07-09T07:08:19;8.90;;;3.77;;
30862;SDS011;17573;55.922;37.540;2023-07-09T07:10:47;4.32;;;2.92;;
30862;SDS011;17573;55.922;37.540;2023-07-09T07:13:13;5.82;;;2.97;;
30862;SDS011;17573;55.922;37.540;2023-07-09T07:15:39;8.73;;;2.95;;
30862;SDS011;17573;55.922;37.540;2023-07-09T07:18:05;3.78;;;2.95;;
30862;SDS011;17573;55.922;37.540;2023-07-09T07:20:32;7.35;;;3.00;;
30862;SDS011;17573;55.922;37.540;2023-07-09T07:22:58;7.22;;;2.85;;
30862;SDS011;17573;55.922;37.540;2023-07-09T07:25:24;6.10;;;2.92;;
30862;SDS011;17573;55.922;37.540;2023-07-09T07:27:50;14.25;;;3.40;;
30862;SDS011;17573;55.922;37.540;2023-07-09T07:30:16;22.10;;;4.85;;
30862;SDS011;17573;55.922;37.540;2023-07-09T07:32:43;10.32;;;2.95;;
30862;SDS011;17573;55.922;37.540;2023-07-09T07:35:10;7.22;;;2.70;;
30862;SDS011;17573;55.922;37.540;2023-07-09T07:37:36;5.85;;;2.80;;
30862;SDS011;17573;55.922;37.540;2023-07-09T07:40:01;8.57;;;2.80;;
30862;SDS011;17573;55.922;37.540;2023-07-09T07:42:30;10.48;;;2.50;;
30862;SDS011;17573;55.922;37.540;2023-07-09T07:44:56;6.75;;;2.60;;
30862;SDS011;17573;55.922;37.540;2023-07-09T07:47:21;5.53;;;2.30;;
30862;SDS011;17573;55.922;37.540;2023-07-09T07:49:47;10.35;;;3.72;;
30862;SDS011;17573;55.922;37.540;2023-07-09T07:52:13;6.45;;;2.60;;
30862;SDS011;17573;55.922;37.540;2023-07-09T07:54:39;11.77;;;3.65;;
30862;SDS011;17573;55.922;37.540;2023-07-09T07:57:05;5.30;;;2.72;;
30862;SDS011;17573;55.922;37.540;2023-07-09T07:59:30;15.20;;;4.43;;
30862;SDS011;17573;55.922;37.540;2023-07-09T08:02:00;8.48;;;3.00;;
30862;SDS011;17573;55.922;37.540;2023-07-09T08:04:26;10.45;;;3.60;;
30862;SDS011;17573;55.922;37.540;2023-07-09T08:06:52;5.40;;;2.65;;
30862;SDS011;17573;55.922;37.540;2023-07-09T08:09:18;10.15;;;3.03;;
30862;SDS011;17573;55.922;37.540;2023-07-09T08:11:44;10.88;;;2.97;;
30862;SDS011;17573;55.922;37.540;2023-07-09T08:14:10;4.47;;;2.40;;
30862;SDS011;17573;55.922;37.540;2023-07-09T08:16:36;9.73;;;2.72;;
30862;SDS011;17573;55.922;37.540;2023-07-09T08:19:01;17.52;;;2.50;;
30862;SDS011;17573;55.922;37.540;2023-07-09T08:21:27;10.98;;;2.80;;
30862;SDS011;17573;55.922;37.540;2023-07-09T08:23:53;25.73;;;2.72;;
30862;SDS011;17573;55.922;37.540;2023-07-09T08:26:19;5.28;;;2.97;;
30862;SDS011;17573;55.922;37.540;2023-07-09T08:28:44;11.80;;;3.17;;
30862;SDS011;17573;55.922;37.540;2023-07-09T08:31:10;12.93;;;3.03;;
30862;SDS011;17573;55.922;37.540;2023-07-09T08:33:36;3.67;;;2.60;;
30862;SDS011;17573;55.922;37.540;2023-07-09T08:36:02;5.88;;;3.35;;
30862;SDS011;17573;55.922;37.540;2023-07-09T08:38:27;6.10;;;2.63;;
30862;SDS011;17573;55.922;37.540;2023-07-09T08:43:31;9.43;;;3.38;;
30862;SDS011;17573;55.922;37.540;2023-07-09T08:46:33;10.02;;;3.20;;
30862;SDS011;17573;55.922;37.540;2023-07-09T08:50:09;11.52;;;2.90;;
30862;SDS011;17573;55.922;37.540;2023-07-09T08:52:28;6.43;;;2.97;;
30862;SDS011;17573;55.922;37.540;2023-07-09T08:54:56;6.95;;;3.08;;
30862;SDS011;17573;55.922;37.540;2023-07-09T08:57:24;6.38;;;2.60;;
30862;SDS011;17573;55.922;37.540;2023-07-09T08:59:56;10.65;;;2.67;;
30862;SDS011;17573;55.922;37.540;2023-07-09T09:02:30;12.40;;;2.95;;
30862;SDS011;17573;55.922;37.540;2023-07-09T09:04:58;4.53;;;2.05;;
30862;SDS011;17573;55.922;37.540;2023-07-09T09:07:40;14.98;;;2.65;;
30862;SDS011;17573;55.922;37.540;2023-07-09T09:10:10;10.68;;;2.65;;
30862;SDS011;17573;55.922;37.540;2023-07-09T09:13:03;5.55;;;2.83;;
30862;SDS011;17573;55.922;37.540;2023-07-09T09:15:35;4.38;;;2.60;;
30862;SDS011;17573;55.922;37.540;2023-07-09T09:20:51;6.90;;;2.97;;
30862;SDS011;17573;55.922;37.540;2023-07-09T09:23:21;6.07;;;3.65;;
30862;SDS011;17573;55.922;37.540;2023-07-09T09:25:54;6.60;;;3.70;;
30862;SDS011;17573;55.922;37.540;2023-07-09T09:28:21;6.60;;;3.15;;
30862;SDS011;17573;55.922;37.540;2023-07-09T09:30:50;7.93;;;3.38;;
30862;SDS011;17573;55.922;37.540;2023-07-09T09:33:16;8.57;;;3.38;;
30862;SDS011;17573;55.922;37.540;2023-07-09T09:35:43;6.57;;;3.03;;
30862;SDS011;17573;55.922;37.540;2023-07-09T09:38:11;10.50;;;2.33;;
30862;SDS011;17573;55.922;37.540;2023-07-09T09:40:38;4.32;;;2.58;;
30862;SDS011;17573;55.922;37.540;2023-07-09T09:43:14;10.25;;;3.72;;
30862;SDS011;17573;55.922;37.540;2023-07-09T09:45:42;5.97;;;3.08;;
30862;SDS011;17573;55.922;37.540;2023-07-09T09:48:17;14.93;;;3.63;;
30862;SDS011;17573;55.922;37.540;2023-07-09T09:50:53;6.65;;;3.13;;
30862;SDS011;17573;55.922;37.540;2023-07-09T09:53:21;19.45;;;2.75;;
30862;SDS011;17573;55.922;37.540;2023-07-09T09:55:50;6.68;;;3.25;;
30862;SDS011;17573;55.922;37.540;2023-07-09T09:58:17;5.85;;;2.47;;
30862;SDS011;17573;55.922;37.540;2023-07-09T10:00:47;8.02;;;2.38;;
30862;SDS011;17573;55.922;37.540;2023-07-09T10:03:15;8.07;;;2.47;;
30862;SDS011;17573;55.922;37.540;2023-07-09T10:05:44;5.10;;;2.65;;
30862;SDS011;17573;55.922;37.540;2023-07-09T10:08:38;8.35;;;2.55;;
30862;SDS011;17573;55.922;37.540;2023-07-09T10:17:00;3.33;;;2.40;;
30862;SDS011;17573;55.922;37.540;2023-07-09T10:22:28;7.40;;;2.63;;
30862;SDS011;17573;55.922;37.540;2023-07-09T10:25:10;4.35;;;2.72;;
30862;SDS011;17573;55.922;37.540;2023-07-09T10:40:43;5.35;;;2.95;;
30862;SDS011;17573;55.922;37.540;2023-07-09T10:43:16;5.93;;;2.50;;
30862;SDS011;17573;55.922;37.540;2023-07-09T10:45:49;6.20;;;2.42;;
30862;SDS011;17573;55.922;37.540;2023-07-09T10:48:53;15.05;;;2.60;;
30862;SDS011;17573;55.922;37.540;2023-07-09T10:54:11;3.72;;;2.10;;
30862;SDS011;17573;55.922;37.540;2023-07-09T10:56:37;33.75;;;3.17;;
30862;SDS011;17573;55.922;37.540;2023-07-09T10:59:08;44.35;;;3.70;;
30862;SDS011;17573;55.922;37.540;2023-07-09T11:02:19;36.77;;;5.10;;
30862;SDS011;17573;55.922;37.540;2023-07-09T11:05:04;7.32;;;2.80;;
30862;SDS011;17573;55.922;37.540;2023-07-09T11:07:38;3.10;;;1.98;;
30862;SDS011;17573;55.922;37.540;2023-07-09T11:10:07;5.20;;;2.97;;
30862;SDS011;17573;55.922;37.540;2023-07-09T11:12:42;6.20;;;2.35;;
30862;SDS011;17573;55.922;37.540;2023-07-09T11:15:22;3.20;;;1.80;;
30862;SDS011;17573;55.922;37.540;2023-07-09T11:17:50;11.82;;;2.63;;
30862;SDS011;17573;55.922;37.540;2023-07-09T11:20:18;9.35;;;2.38;;
30862;SDS011;17573;55.922;37.540;2023-07-09T11:22:51;5.22;;;1.85;;
30862;SDS011;17573;55.922;37.540;2023-07-09T11:25:26;6.13;;;2.45;;
30862;SDS011;17573;55.922;37.540;2023-07-09T11:28:05;13.93;;;2.58;;
30862;SDS011;17573;55.922;37.540;2023-07-09T11:30:31;14.02;;;4.07;;
30862;SDS011;17573;55.922;37.540;2023-07-09T11:32:58;9.82;;;3.15;;
30862;SDS011;17573;55.922;37.540;2023-07-09T11:35:29;9.30;;;2.33;;
30862;SDS011;17573;55.922;37.540;2023-07-09T11:38:12;6.25;;;2.05;;
30862;SDS011;17573;55.922;37.540;2023-07-09T11:40:46;7.10;;;3.33;;
30862;SDS011;17573;55.922;37.540;2023-07-09T11:43:25;4.97;;;2.55;;
30862;SDS011;17573;55.922;37.540;2023-07-09T11:45:53;5.82;;;2.80;;
30862;SDS011;17573;55.922;37.540;2023-07-09T11:48:25;10.13;;;3.08;;
30862;SDS011;17573;55.922;37.540;2023-07-09T11:50:52;9.32;;;3.03;;
30862;SDS011;17573;55.922;37.540;2023-07-09T11:53:29;7.85;;;2.78;;
30862;SDS011;17573;55.922;37.540;2023-07-09T11:56:00;6.30;;;3.03;;
30862;SDS011;17573;55.922;37.540;2023-07-09T11:58:26;7.00;;;2.42;;
30862;SDS011;17573;55.922;37.540;2023-07-09T12:00:54;3.25;;;2.55;;
30862;SDS011;17573;55.922;37.540;2023-07-09T12:06:22;5.90;;;3.22;;
30862;SDS011;17573;55.922;37.540;2023-07-09T12:08:49;6.78;;;3.00;;
30862;SDS011;17573;55.922;37.540;2023-07-09T12:11:34;4.93;;;3.03;;
30862;SDS011;17573;55.922;37.540;2023-07-09T12:14:01;14.68;;;4.25;;
30862;SDS011;17573;55.922;37.540;2023-07-09T12:16:29;6.30;;;4.05;;
30862;SDS011;17573;55.922;37.540;2023-07-09T12:18:56;7.47;;;3.95;;
30862;SDS011;17573;55.922;37.540;2023-07-09T12:21:23;6.90;;;3.08;;
30862;SDS011;17573;55.922;37.540;2023-07-09T12:23:50;5.40;;;2.75;;
30862;SDS011;17573;55.922;37.540;2023-07-09T12:26:16;8.65;;;3.75;;
30862;SDS011;17573;55.922;37.540;2023-07-09T12:28:50;8.55;;;3.80;;
30862;SDS011;17573;55.922;37.540;2023-07-09T12:31:17;7.82;;;2.60;;
30862;SDS011;17573;55.922;37.540;2023-07-09T12:33:49;5.32;;;2.97;;
30862;SDS011;17573;55.922;37.540;2023-07-09T12:36:16;5.60;;;2.60;;
30862;SDS011;17573;55.922;37.540;2023-07-09T12:38:43;9.23;;;3.33;;
30862;SDS011;17573;55.922;37.540;2023-07-09T12:41:22;4.05;;;2.85;;
30862;SDS011;17573;55.922;37.540;2023-07-09T12:43:51;8.50;;;3.20;;
30862;SDS011;17573;55.922;37.540;2023-07-09T12:46:17;11.68;;;3.38;;
30862;SDS011;17573;55.922;37.540;2023-07-09T12:48:44;21.30;;;4.30;;
30862;SDS011;17573;55.922;37.540;2023-07-09T12:51:20;9.32;;;3.38;;
30862;SDS011;17573;55.922;37.540;2023-07-09T12:56:41;8.48;;;3.00;;
30862;SDS011;17573;55.922;37.540;2023-07-09T13:02:37;12.85;;;3.75;;
30862;SDS011;17573;55.922;37.540;2023-07-09T13:04:42;8.82;;;2.83;;
30862;SDS011;17573;55.922;37.540;2023-07-09T13:09:52;18.77;;;4.27;;
30862;SDS011;17573;55.922;37.540;2023-07-09T13:12:19;12.38;;;2.83;;
30862;SDS011;17573;55.922;37.540;2023-07-09T13:14:52;11.77;;;3.38;;
30862;SDS011;17573;55.922;37.540;2023-07-09T13:17:19;37.22;;;4.38;;
30862;SDS011;17573;55.922;37.540;2023-07-09T13:19:44;11.05;;;3.40;;
30862;SDS011;17573;55.922;37.540;2023-07-09T13:22:14;7.22;;;3.08;;
30862;SDS011;17573;55.922;37.540;2023-07-09T13:24:41;6.70;;;3.50;;
30862;SDS011;17573;55.922;37.540;2023-07-09T13:27:11;12.68;;;3.70;;
30862;SDS011;17573;55.922;37.540;2023-07-09T13:29:39;5.32;;;3.55;;
30862;SDS011;17573;55.922;37.540;2023-07-09T13:32:12;7.40;;;2.88;;
30862;SDS011;17573;55.922;37.540;2023-07-09T13:34:38;6.80;;;2.90;;
30862;SDS011;17573;55.922;37.540;2023-07-09T13:37:08;4.90;;;3.03;;
30862;SDS011;17573;55.922;37.540;2023-07-09T13:39:37;66.97;;;6.40;;
30862;SDS011;17573;55.922;37.540;2023-07-09T13:42:02;4.70;;;2.88;;
30862;SDS011;17573;55.922;37.540;2023-07-09T13:44:30;9.40;;;3.03;;
30862;SDS011;17573;55.922;37.540;2023-07-09T13:46:56;8.60;;;3.35;;
30862;SDS011;17573;55.922;37.540;2023-07-09T13:49:23;9.43;;;5.13;;
30862;SDS011;17573;55.922;37.540;2023-07-09T13:51:51;12.23;;;3.53;;
30862;SDS011;17573;55.922;37.540;2023-07-09T13:54:23;13.50;;;5.35;;
30862;SDS011;17573;55.922;37.540;2023-07-09T13:56:51;9.50;;;4.07;;
30862;SDS011;17573;55.922;37.540;2023-07-09T13:59:24;11.35;;;3.72;;
30862;SDS011;17573;55.922;37.540;2023-07-09T14:01:54;6.72;;;3.20;;
30862;SDS011;17573;55.922;37.540;2023-07-09T14:04:22;28.30;;;4.00;;
30862;SDS011;17573;55.922;37.540;2023-07-09T14:06:49;11.98;;;3.78;;
30862;SDS011;17573;55.922;37.540;2023-07-09T14:09:15;7.90;;;3.25;;
30862;SDS011;17573;55.922;37.540;2023-07-09T14:11:45;11.80;;;3.20;;
30862;SDS011;17573;55.922;37.540;2023-07-09T14:14:24;10.15;;;3.25;;
30862;SDS011;17573;55.922;37.540;2023-07-09T14:16:55;5.78;;;2.78;;
30862;SDS011;17573;55.922;37.540;2023-07-09T14:19:22;7.13;;;2.65;;
30862;SDS011;17573;55.922;37.540;2023-07-09T14:21:49;4.30;;;2.83;;
30862;SDS011;17573;55.922;37.540;2023-07-09T14:24:19;13.30;;;2.45;;
30862;SDS011;17573;55.922;37.540;2023-07-09T14:26:45;7.65;;;2.72;;
30862;SDS011;17573;55.922;37.540;2023-07-09T14:29:12;19.42;;;2.97;;
30862;SDS011;17573;55.922;37.540;2023-07-09T14:31:41;8.70;;;3.40;;
30862;SDS011;17573;55.922;37.540;2023-07-09T14:34:30;10.02;;;3.33;;
30862;SDS011;17573;55.922;37.540;2023-07-09T14:36:55;4.95;;;2.17;;
30862;SDS011;17573;55.922;37.540;2023-07-09T14:39:23;5.63;;;3.15;;
30862;SDS011;17573;55.922;37.540;2023-07-09T14:41:49;8.73;;;3.42;;
30862;SDS011;17573;55.922;37.540;2023-07-09T14:46:47;8.68;;;2.90;;
30862;SDS011;17573;55.922;37.540;2023-07-09T14:49:15;6.97;;;2.60;;
30862;SDS011;17573;55.922;37.540;2023-07-09T14:51:44;6.55;;;3.15;;
30862;SDS011;17573;55.922;37.540;2023-07-09T14:54:31;9.50;;;3.10;;
30862;SDS011;17573;55.922;37.540;2023-07-09T14:56:57;9.00;;;2.92;;
30862;SDS011;17573;55.922;37.540;2023-07-09T14:59:24;11.15;;;2.75;;
30862;SDS011;17573;55.922;37.540;2023-07-09T15:01:50;6.32;;;2.72;;
30862;SDS011;17573;55.922;37.540;2023-07-09T15:06:49;12.32;;;3.60;;
30862;SDS011;17573;55.922;37.540;2023-07-09T15:09:16;9.30;;;3.70;;
30862;SDS011;17573;55.922;37.540;2023-07-09T15:11:48;19.67;;;3.85;;
30862;SDS011;17573;55.922;37.540;2023-07-09T15:14:16;9.68;;;3.22;;
30862;SDS011;17573;55.922;37.540;2023-07-09T15:16:42;9.07;;;2.92;;
30862;SDS011;17573;55.922;37.540;2023-07-09T15:19:14;7.55;;;3.30;;
30862;SDS011;17573;55.922;37.540;2023-07-09T15:21:41;11.88;;;3.38;;
30862;SDS011;17573;55.922;37.540;2023-07-09T15:24:23;7.85;;;3.20;;
30862;SDS011;17573;55.922;37.540;2023-07-09T15:26:52;8.93;;;3.60;;